Time;durP1;ratioP1;P1;durP2;ratioP2;P2;SDS_P1;SDS_P2;PMS_P1;PMS_P2;Temp;Humidity;BMP_temperature;BMP_pressure;BME280_temperature;BME280_humidity;BME280_pressure;Samples;Min_cycle;Max_cycle;Signal;HPM_P1;HPM_P2
2021/07/24 00:00:16;;;;;;;14.43;12.87;;;17.00;99.90;;;;;;4957376;29;20458;-92
2021/07/24 00:02:43;;;;;;;16.33;14.57;;;;;;;;;;4954255;29;20966;-92
2021/07/24 00:05:12;;;;;;;15.67;13.77;;;17.50;99.90;;;;;;4956488;29;20446;-90
2021/07/24 00:07:39;;;;;;;17.50;14.90;;;;;;;;;;4957716;29;20458;-93
2021/07/24 00:10:07;;;;;;;16.50;14.40;;;17.00;99.90;;;;;;4961604;29;20431;-92
2021/07/24 00:12:35;;;;;;;17.47;14.60;;;;;;;;;;4957229;29;20969;-92
2021/07/24 00:15:02;;;;;;;21.50;15.60;;;;;;;;;;4954224;29;20474;-92
2021/07/24 00:17:29;;;;;;;19.03;16.17;;;;;;;;;;4957471;29;20495;-92
2021/07/24 00:19:56;;;;;;;17.37;15.57;;;;;;;;;;4958006;29;20451;-91
2021/07/24 00:22:24;;;;;;;21.70;16.20;;;17.00;99.90;;;;;;4971240;29;20450;-90
2021/07/24 00:24:51;;;;;;;18.27;15.87;;;;;;;;;;4966401;29;20447;-91
2021/07/24 00:27:18;;;;;;;20.33;16.63;;;;;;;;;;4970004;28;20459;-91
2021/07/24 00:29:46;;;;;;;25.20;18.47;;;;;;;;;;4964408;29;20443;-92
2021/07/24 00:32:13;;;;;;;20.33;18.07;;;;;;;;;;4956448;29;20443;-93
2021/07/24 00:34:40;;;;;;;21.63;18.83;;;;;;;;;;4952225;29;20455;-92
2021/07/24 00:37:07;;;;;;;20.03;17.53;;;;;;;;;;4953446;29;20479;-93
2021/07/24 00:39:35;;;;;;;20.17;18.10;;;16.90;99.90;;;;;;4956268;29;20474;-92
2021/07/24 00:42:13;;;;;;;23.10;17.30;;;16.80;99.90;;;;;;4956270;29;20478;-88
2021/07/24 00:44:44;;;;;;;21.60;17.20;;;;;;;;;;4956216;29;20455;-91
2021/07/24 00:47:13;;;;;;;19.67;17.67;;;16.70;99.90;;;;;;4956121;29;20479;-92
2021/07/24 00:49:40;;;;;;;22.00;16.80;;;;;;;;;;4955251;29;20446;-88
2021/07/24 00:52:08;;;;;;;18.17;15.70;;;;;;;;;;4953625;29;20442;-91
2021/07/24 00:54:36;;;;;;;18.70;16.90;;;16.70;99.90;;;;;;4956354;29;20450;-90
2021/07/24 00:57:04;;;;;;;20.77;17.20;;;;;;;;;;4956195;29;20440;-89
2021/07/24 00:59:31;;;;;;;18.43;16.50;;;;;;;;;;4956167;29;20447;-88
2021/07/24 01:01:58;;;;;;;19.93;17.40;;;;;;;;;;4956165;29;20451;-92
2021/07/24 01:04:25;;;;;;;20.27;17.40;;;;;;;;;;4955135;29;20797;-92
2021/07/24 01:06:52;;;;;;;20.60;17.97;;;;;;;;;;4953303;29;20818;-91
2021/07/24 01:09:20;;;;;;;18.80;16.80;;;;;;;;;;4956182;29;20459;-92
2021/07/24 01:11:49;;;;;;;20.07;17.97;;;16.60;99.90;;;;;;4955724;29;20994;-92
2021/07/24 01:14:16;;;;;;;17.63;15.83;;;;;;;;;;4955780;29;20447;-89
2021/07/24 01:16:45;;;;;;;16.80;15.00;;;;;;;;;;4956161;29;20449;-92
2021/07/24 01:19:12;;;;;;;17.97;14.70;;;;;;;;;;4954820;29;20590;-92
2021/07/24 01:21:40;;;;;;;21.00;17.40;;;16.50;99.90;;;;;;4956451;29;20443;-91
2021/07/24 01:24:07;;;;;;;19.63;16.10;;;;;;;;;;4955821;29;20833;-90
2021/07/24 01:26:35;;;;;;;21.90;17.90;;;16.40;99.90;;;;;;4949395;29;20466;-93
2021/07/24 01:29:03;;;;;;;21.23;17.90;;;16.40;99.90;;;;;;4955563;29;20923;-89
2021/07/24 01:31:30;;;;;;;20.00;16.93;;;;;;;;;;4952885;29;20463;-92
2021/07/24 01:33:57;;;;;;;20.63;17.33;;;;;;;;;;4954879;29;20436;-94
2021/07/24 01:36:24;;;;;;;18.90;15.07;;;;;;;;;;4955907;29;20787;-93
2021/07/24 01:38:52;;;;;;;18.40;15.27;;;16.50;99.90;;;;;;4955395;28;20505;-89
2021/07/24 01:41:20;;;;;;;19.60;14.50;;;;;;;;;;4959068;28;20486;-90
2021/07/24 01:43:47;;;;;;;19.20;16.10;;;;;;;;;;4959664;29;20447;-92
2021/07/24 01:46:14;;;;;;;19.20;16.70;;;;;;;;;;4959364;29;20459;-91
2021/07/24 01:48:44;;;;;;;18.10;15.70;;;;;;;;;;4958557;29;20474;-92
2021/07/24 01:54:03;;;;;;;19.67;16.37;;;16.10;99.90;;;;;;4959230;29;20914;-91
2021/07/24 01:56:33;;;;;;;18.13;15.47;;;16.50;99.90;;;;;;4959220;29;20450;-92
2021/07/24 01:59:01;;;;;;;18.50;14.40;;;;;;;;;;4959090;29;20498;-93
2021/07/24 02:01:29;;;;;;;17.90;14.80;;;16.30;99.90;;;;;;4959116;29;20458;-92
2021/07/24 02:04:05;;;;;;;20.27;15.30;;;16.30;99.90;;;;;;4958121;29;20447;-90
2021/07/24 02:06:32;;;;;;;18.00;15.13;;;16.30;99.90;;;;;;4956191;29;20435;-92
2021/07/24 02:09:01;;;;;;;16.53;14.70;;;16.40;99.90;;;;;;4959231;29;20447;-91
2021/07/24 02:11:29;;;;;;;19.93;15.07;;;16.40;99.90;;;;;;4958884;29;20523;-92
2021/07/24 02:13:56;;;;;;;16.50;14.30;;;16.50;99.90;;;;;;4959039;29;20528;-92
2021/07/24 02:16:23;;;;;;;15.80;12.10;;;;;;;;;;4958784;29;20435;-89
2021/07/24 02:18:50;;;;;;;14.10;12.33;;;;;;;;;;4957926;29;20501;-92
2021/07/24 02:21:18;;;;;;;12.73;11.43;;;16.30;99.90;;;;;;4958667;29;20458;-92
2021/07/24 02:23:44;;;;;;;14.60;12.77;;;16.50;99.90;;;;;;4953380;29;20459;-91
2021/07/24 02:26:13;;;;;;;14.87;13.30;;;16.80;99.90;;;;;;4953925;29;20459;-93
2021/07/24 02:28:39;;;;;;;12.47;11.07;;;16.70;99.90;;;;;;4958907;29;20803;-92
2021/07/24 02:31:07;;;;;;;18.70;14.20;;;;;;;;;;4958696;29;20943;-92
2021/07/24 02:33:33;;;;;;;12.37;11.00;;;16.70;99.90;;;;;;4957611;29;20455;-92
2021/07/24 02:36:00;;;;;;;13.17;11.43;;;;;;;;;;4955906;29;20439;-91
2021/07/24 02:38:28;;;;;;;13.97;10.40;;;;;;;;;;4958648;29;20495;-90
2021/07/24 02:40:55;;;;;;;12.97;11.67;;;;;;;;;;4958632;28;20857;-92
2021/07/24 02:43:25;;;;;;;13.40;12.00;;;16.60;99.90;;;;;;4958692;29;20458;-91
2021/07/24 02:45:52;;;;;;;16.20;11.40;;;;;;;;;;4955288;29;20459;-88
2021/07/24 02:48:19;;;;;;;12.83;11.53;;;;;;;;;;4957064;29;20432;-91
2021/07/24 02:50:47;;;;;;;13.00;11.60;;;;;;;;;;4957513;28;20466;-92
2021/07/24 02:53:13;;;;;;;13.80;12.20;;;16.80;99.90;;;;;;4954331;29;20440;-89
2021/07/24 02:55:40;;;;;;;14.03;11.17;;;17.30;99.90;;;;;;4955266;29;20458;-90
2021/07/24 02:58:07;;;;;;;12.63;11.33;;;;;;;;;;4958133;29;20490;-92
2021/07/24 03:00:36;;;;;;;13.37;11.60;;;16.90;99.90;;;;;;4958585;29;20443;-91
2021/07/24 03:03:03;;;;;;;14.33;12.20;;;;;;;;;;4958251;29;20458;-88
2021/07/24 03:05:30;;;;;;;13.00;11.23;;;16.90;99.90;;;;;;4954110;29;20451;-91
2021/07/24 03:07:56;;;;;;;17.83;11.90;;;16.70;99.90;;;;;;4958309;29;20454;-92
2021/07/24 03:10:24;;;;;;;13.40;12.00;;;;;;;;;;4958211;29;20438;-90
2021/07/24 03:12:51;;;;;;;14.30;10.90;;;;;;;;;;4957941;29;20461;-92
2021/07/24 03:15:17;;;;;;;12.10;10.90;;;17.00;99.90;;;;;;4957805;29;20943;-92
2021/07/24 03:17:46;;;;;;;18.43;12.07;;;17.00;99.90;;;;;;4955086;29;20479;-91
2021/07/24 03:20:13;;;;;;;13.17;10.77;;;17.30;99.90;;;;;;4953817;29;20447;-90
2021/07/24 03:22:40;;;;;;;13.07;11.77;;;17.00;99.90;;;;;;4957733;29;20447;-92
2021/07/24 03:25:08;;;;;;;13.90;12.30;;;16.90;99.90;;;;;;4957687;29;20946;-88
2021/07/24 03:27:36;;;;;;;14.73;12.00;;;17.00;99.90;;;;;;4957795;29;20457;-93
2021/07/24 03:30:04;;;;;;;13.27;11.97;;;17.00;99.90;;;;;;4957869;29;20458;-91
2021/07/24 03:32:31;;;;;;;12.40;10.80;;;16.30;99.90;;;;;;4957767;29;20506;-89
2021/07/24 03:34:59;;;;;;;12.10;10.53;;;16.80;99.90;;;;;;4956953;29;20439;-91
2021/07/24 03:37:26;;;;;;;12.77;11.40;;;17.00;99.90;;;;;;4957485;29;20475;-90
2021/07/24 03:39:53;;;;;;;13.03;11.73;;;;;;;;;;4953445;29;20494;-92
2021/07/24 03:42:21;;;;;;;13.63;12.27;;;;;;;;;;4957361;29;20490;-91
2021/07/24 03:44:48;;;;;;;14.63;11.70;;;;;;;;;;4957304;29;20450;-91
2021/07/24 03:47:15;;;;;;;13.60;12.20;;;;;;;;;;4957708;29;20458;-88
2021/07/24 03:49:42;;;;;;;12.13;10.93;;;;;;;;;;4956246;29;20455;-92
2021/07/24 03:52:10;;;;;;;14.00;11.23;;;17.00;99.90;;;;;;4957153;29;20788;-92
2021/07/24 03:54:37;;;;;;;13.27;11.63;;;17.00;99.90;;;;;;4956981;29;20446;-91
2021/07/24 03:57:04;;;;;;;12.77;11.47;;;16.80;99.90;;;;;;4956910;29;20462;-91
2021/07/24 03:59:31;;;;;;;13.20;11.73;;;17.20;99.90;;;;;;4952237;29;20499;-91
2021/07/24 04:01:58;;;;;;;14.47;13.03;;;;;;;;;;4956923;28;20518;-91
2021/07/24 04:04:26;;;;;;;15.40;12.50;;;;;;;;;;4955965;29;20454;-93
2021/07/24 04:06:54;;;;;;;12.60;11.00;;;17.10;99.90;;;;;;4957010;29;20474;-91
2021/07/24 04:09:22;;;;;;;12.23;11.03;;;17.20;99.90;;;;;;4956847;29;20463;-91
2021/07/24 04:11:50;;;;;;;13.87;12.03;;;17.40;99.90;;;;;;4956862;29;20460;-92
2021/07/24 04:14:17;;;;;;;12.97;11.60;;;17.30;99.90;;;;;;4956906;29;20459;-92
2021/07/24 04:16:44;;;;;;;12.43;10.87;;;;;;;;;;4949288;29;20447;-88
2021/07/24 04:19:11;;;;;;;11.73;10.63;;;17.40;99.90;;;;;;4955684;29;20502;-92
2021/07/24 04:21:38;;;;;;;15.60;11.33;;;17.20;99.90;;;;;;4956477;29;20462;-89
2021/07/24 04:24:05;;;;;;;14.73;12.30;;;17.40;99.90;;;;;;4956345;29;20966;-91
2021/07/24 04:26:33;;;;;;;13.37;12.00;;;17.70;99.90;;;;;;4956253;29;20451;-93
2021/07/24 04:29:01;;;;;;;12.63;11.07;;;;;;;;;;4956786;29;20448;-93
2021/07/24 04:31:28;;;;;;;12.80;11.50;;;;;;;;;;4956654;29;20443;-92
2021/07/24 04:33:55;;;;;;;12.30;10.67;;;17.40;99.90;;;;;;4955684;29;20783;-91
2021/07/24 04:36:22;;;;;;;13.90;12.50;;;17.60;99.90;;;;;;4952407;29;20798;-91
2021/07/24 04:38:49;;;;;;;13.23;10.90;;;;;;;;;;4956438;29;20529;-92
2021/07/24 04:41:20;;;;;;;12.63;11.33;;;17.40;99.90;;;;;;4956321;28;20479;-90
2021/07/24 04:43:49;;;;;;;14.60;12.27;;;17.50;99.90;;;;;;4956224;29;20631;-90
2021/07/24 04:46:16;;;;;;;17.27;12.20;;;17.60;99.90;;;;;;4960649;28;20505;-92
2021/07/24 04:48:43;;;;;;;20.00;12.17;;;17.60;99.90;;;;;;4974698;28;20472;-91
2021/07/24 04:51:10;;;;;;;13.07;11.60;;;18.00;99.90;;;;;;4975958;28;20446;-90
2021/07/24 04:53:38;;;;;;;13.20;11.90;;;18.00;99.90;;;;;;4972880;28;20443;-93
2021/07/24 04:56:07;;;;;;;14.33;11.90;;;18.00;99.90;;;;;;4975500;28;20792;-91
2021/07/24 04:58:35;;;;;;;13.63;12.23;;;17.80;99.90;;;;;;4975246;28;20977;-89
2021/07/24 05:01:04;;;;;;;12.30;10.97;;;18.00;99.90;;;;;;4975392;28;20450;-91
2021/07/24 05:03:32;;;;;;;13.13;11.83;;;18.30;99.90;;;;;;4974551;28;20438;-92
2021/07/24 05:06:00;;;;;;;13.67;11.83;;;18.00;99.90;;;;;;4973643;28;20817;-93
2021/07/24 05:08:27;;;;;;;12.13;10.87;;;17.80;99.90;;;;;;4975621;28;20442;-91
2021/07/24 05:10:54;;;;;;;14.23;10.77;;;;;;;;;;4975218;28;20450;-92
2021/07/24 05:13:21;;;;;;;12.57;11.27;;;17.90;99.90;;;;;;4972662;28;20997;-93
2021/07/24 05:15:48;;;;;;;13.00;11.67;;;18.60;99.90;;;;;;4974841;28;20450;-93
2021/07/24 05:18:17;;;;;;;12.53;10.80;;;18.20;99.90;;;;;;4973280;28;20462;-92
2021/07/24 05:20:44;;;;;;;17.37;11.10;;;18.60;99.90;;;;;;4972325;28;20505;-93
2021/07/24 05:23:10;;;;;;;13.50;11.10;;;18.70;99.90;;;;;;4973050;28;20457;-92
2021/07/24 05:25:38;;;;;;;13.67;11.60;;;19.10;99.90;;;;;;4975394;28;20477;-90
2021/07/24 05:28:05;;;;;;;12.87;10.60;;;19.00;99.90;;;;;;4975551;28;20453;-90
2021/07/24 05:30:33;;;;;;;13.77;12.37;;;19.10;99.90;;;;;;4974698;28;20462;-93
2021/07/24 05:33:00;;;;;;;14.23;11.10;;;19.40;99.90;;;;;;4975147;28;20446;-92
2021/07/24 05:35:28;;;;;;;12.37;11.17;;;19.40;99.90;;;;;;4973905;28;20446;-93
2021/07/24 05:37:55;;;;;;;12.47;10.50;;;;;;;;;;4974852;28;20466;-91
2021/07/24 05:40:22;;;;;;;11.20;10.00;;;20.10;99.90;;;;;;4975155;28;20502;-93
2021/07/24 05:42:50;;;;;;;12.53;11.23;;;19.90;99.90;;;;;;4972642;28;20470;-93
2021/07/24 05:45:16;;;;;;;11.77;10.57;;;20.10;99.90;;;;;;4974928;28;21050;-93
2021/07/24 05:47:44;;;;;;;12.03;10.50;;;;;;;;;;4974834;28;20454;-90
2021/07/24 05:50:11;;;;;;;14.13;11.10;;;21.10;99.90;;;;;;4976293;23;20498;-91
2021/07/24 05:52:39;;;;;;;16.97;12.17;;;21.70;99.90;;;;;;4951632;29;20966;-89
2021/07/24 05:55:07;;;;;;;11.53;9.40;;;21.70;99.90;;;;;;4958959;29;20451;-95
2021/07/24 05:57:36;;;;;;;10.00;9.00;;;22.00;99.90;;;;;;4955786;29;20450;-96
2021/07/24 06:00:03;;;;;;;14.40;10.27;;;21.80;99.90;;;;;;4959573;29;20486;-89
2021/07/24 06:02:30;;;;;;;14.20;10.70;;;21.60;99.90;;;;;;4957313;29;20455;-95
2021/07/24 06:04:57;;;;;;;12.63;10.50;;;21.10;99.90;;;;;;4960137;29;20443;-94
2021/07/24 06:07:24;;;;;;;13.20;11.00;;;;;;;;;;4956296;29;20451;-93
2021/07/24 06:09:52;;;;;;;14.43;11.47;;;20.50;99.90;;;;;;4955166;29;20439;-89
2021/07/24 06:12:19;;;;;;;12.00;10.80;;;20.50;99.90;;;;;;4955532;29;20447;-92
2021/07/24 06:14:46;;;;;;;11.87;10.67;;;;;;;;;;4952479;29;20459;-92
2021/07/24 06:17:13;;;;;;;12.70;11.40;;;20.20;99.90;;;;;;4955823;29;20435;-93
2021/07/24 06:19:39;;;;;;;12.40;10.57;;;20.20;99.90;;;;;;4948971;29;20478;-92
2021/07/24 06:22:06;;;;;;;14.20;12.23;;;20.20;99.90;;;;;;4954797;29;20943;-87
2021/07/24 06:24:33;;;;;;;14.03;11.70;;;20.40;99.90;;;;;;4955123;29;20455;-92
2021/07/24 06:27:01;;;;;;;11.93;10.70;;;20.40;99.90;;;;;;4954489;28;20466;-89
2021/07/24 06:29:28;;;;;;;11.63;10.40;;;20.20;99.90;;;;;;4957524;29;20455;-87
2021/07/24 06:31:55;;;;;;;14.30;12.40;;;20.60;99.90;;;;;;4953757;28;20466;-87
2021/07/24 06:34:21;;;;;;;12.40;11.10;;;20.30;99.90;;;;;;4953750;29;20455;-86
2021/07/24 06:36:51;;;;;;;12.07;10.67;;;;;;;;;;4957850;29;20440;-92
2021/07/24 06:39:19;;;;;;;12.33;11.03;;;20.80;99.90;;;;;;4958123;29;20501;-91
2021/07/24 06:41:46;;;;;;;15.27;11.50;;;20.80;99.90;;;;;;4958396;29;20459;-87
2021/07/24 06:44:14;;;;;;;12.60;11.40;;;20.90;99.90;;;;;;4957436;29;20447;-87
2021/07/24 06:46:40;;;;;;;14.20;11.37;;;21.10;99.90;;;;;;4957715;29;20455;-87
2021/07/24 06:49:07;;;;;;;11.97;10.73;;;20.90;99.90;;;;;;4950892;29;20466;-87
2021/07/24 06:51:34;;;;;;;14.90;10.80;;;;;;;;;;4957341;29;20462;-87
2021/07/24 06:54:01;;;;;;;13.40;11.17;;;;;;;;;;4957214;29;20458;-87
2021/07/24 06:56:28;;;;;;;12.37;10.70;;;21.10;99.90;;;;;;4957436;29;20559;-87
2021/07/24 06:58:55;;;;;;;13.43;11.97;;;;;;;;;;4954286;29;20462;-87
2021/07/24 07:01:23;;;;;;;13.07;11.70;;;21.60;99.90;;;;;;4957122;29;20957;-87
2021/07/24 07:03:50;;;;;;;12.83;10.90;;;21.50;99.90;;;;;;4955980;29;20454;-88
2021/07/24 07:06:17;;;;;;;13.37;11.80;;;;;;;;;;4957041;29;20451;-87
2021/07/24 07:08:44;;;;;;;12.93;11.63;;;21.70;99.90;;;;;;4954465;29;20450;-87
2021/07/24 07:11:12;;;;;;;13.47;12.17;;;21.40;99.90;;;;;;4954405;29;20475;-87
2021/07/24 07:13:39;;;;;;;12.60;11.30;;;;;;;;;;4957316;29;20483;-87
2021/07/24 07:16:07;;;;;;;12.00;10.80;;;;;;;;;;4956869;29;20461;-87
2021/07/24 07:18:36;;;;;;;12.57;10.60;;;21.20;99.90;;;;;;4955694;29;20796;-86
2021/07/24 07:21:03;;;;;;;13.63;12.07;;;20.90;99.90;;;;;;4956807;29;20502;-88
2021/07/24 07:23:30;;;;;;;12.57;11.27;;;;;;;;;;4956945;29;20454;-87
2021/07/24 07:25:57;;;;;;;13.43;10.87;;;;;;;;;;4956914;29;20447;-88
2021/07/24 07:28:24;;;;;;;12.97;10.90;;;;;;;;;;4957089;29;20455;-91
2021/07/24 07:30:51;;;;;;;12.73;11.43;;;21.30;99.90;;;;;;4957085;28;20467;-89
2021/07/24 07:33:20;;;;;;;12.90;11.60;;;;;;;;;;4956738;29;20824;-89
2021/07/24 07:35:49;;;;;;;13.17;11.77;;;21.70;99.90;;;;;;4954348;29;20806;-87
2021/07/24 07:38:17;;;;;;;13.13;11.80;;;;;;;;;;4956698;28;20458;-88
2021/07/24 07:40:43;;;;;;;12.23;10.93;;;21.30;99.90;;;;;;4956961;29;20549;-87
2021/07/24 07:43:11;;;;;;;13.43;12.10;;;21.20;99.90;;;;;;4956811;29;20456;-87
2021/07/24 07:45:40;;;;;;;14.27;12.80;;;;;;;;;;4956509;29;20462;-87
2021/07/24 07:48:07;;;;;;;14.00;12.57;;;20.50;99.90;;;;;;4956335;29;20501;-88
2021/07/24 07:50:35;;;;;;;14.20;12.70;;;;;;;;;;4955158;29;21014;-87
2021/07/24 07:53:04;;;;;;;15.80;12.77;;;20.40;99.90;;;;;;4956489;29;20583;-87
2021/07/24 07:55:30;;;;;;;13.63;12.13;;;20.40;99.90;;;;;;4938371;29;20458;-87
2021/07/24 07:57:57;;;;;;;12.60;11.37;;;20.30;99.90;;;;;;4956347;29;20458;-86
2021/07/24 08:00:24;;;;;;;15.30;12.70;;;20.40;99.90;;;;;;4956403;29;20495;-86
2021/07/24 08:02:52;;;;;;;13.70;11.83;;;20.10;99.90;;;;;;4956103;29;20478;-88
2021/07/24 08:05:19;;;;;;;12.57;10.57;;;19.60;99.90;;;;;;4958649;29;20455;-87
2021/07/24 08:07:46;;;;;;;13.70;12.20;;;20.10;99.90;;;;;;4960443;29;20487;-86
2021/07/24 08:10:14;;;;;;;15.40;13.20;;;20.20;99.90;;;;;;4962675;29;20450;-87
2021/07/24 08:12:42;;;;;;;15.20;13.40;;;;;;;;;;4962370;29;20461;-86
2021/07/24 08:15:09;;;;;;;14.90;13.37;;;19.60;99.90;;;;;;4962277;29;20451;-87
2021/07/24 08:17:36;;;;;;;15.10;12.93;;;20.40;99.90;;;;;;4958499;29;20458;-88
2021/07/24 08:20:03;;;;;;;16.23;13.33;;;21.20;99.90;;;;;;4955527;29;20498;-88
2021/07/24 08:22:30;;;;;;;14.50;12.60;;;20.50;99.90;;;;;;4955622;29;20459;-87
2021/07/24 08:24:57;;;;;;;15.47;13.83;;;20.50;99.90;;;;;;4955623;29;20865;-88
2021/07/24 08:27:25;;;;;;;14.43;13.13;;;20.70;99.90;;;;;;4955482;29;20454;-87
2021/07/24 08:29:52;;;;;;;17.77;13.53;;;20.90;99.90;;;;;;4955403;29;20491;-88
2021/07/24 08:32:19;;;;;;;14.83;13.33;;;21.30;99.90;;;;;;4905976;29;20463;-88
2021/07/24 08:34:49;;;;;;;13.97;12.67;;;21.20;99.90;;;;;;4954426;29;20950;-87
2021/07/24 08:37:16;;;;;;;14.40;12.83;;;21.40;99.90;;;;;;4955815;29;20443;-88
2021/07/24 08:39:43;;;;;;;14.90;13.40;;;21.20;99.90;;;;;;4955779;29;20490;-87
2021/07/24 08:42:09;;;;;;;14.43;12.93;;;21.90;99.90;;;;;;4955371;29;20459;-87
2021/07/24 08:44:38;;;;;;;16.57;14.27;;;22.50;99.90;;;;;;4955246;29;20455;-87
2021/07/24 08:47:05;;;;;;;15.23;13.07;;;22.70;99.90;;;;;;4955258;29;20459;-89
2021/07/24 08:49:32;;;;;;;15.60;14.13;;;;;;;;;;4953232;28;20466;-90
2021/07/24 08:52:00;;;;;;;16.83;13.40;;;22.70;99.90;;;;;;4955271;29;20958;-87
2021/07/24 08:54:27;;;;;;;14.53;13.00;;;;;;;;;;4955210;29;20439;-88
2021/07/24 08:56:54;;;;;;;16.73;13.57;;;23.20;99.90;;;;;;4957655;29;20447;-91
2021/07/24 08:59:22;;;;;;;14.90;13.40;;;23.10;99.90;;;;;;4958133;29;20454;-88
2021/07/24 09:01:54;;;;;;;14.50;13.10;;;23.50;99.90;;;;;;4956688;29;20498;-88
2021/07/24 09:04:22;;;;;;;17.50;14.17;;;;;;;;;;4962192;28;20462;-96
2021/07/24 09:06:53;;;;;;;19.57;13.23;;;24.00;99.90;;;;;;4951829;29;20451;-88
2021/07/24 09:09:21;;;;;;;15.17;13.20;;;24.40;99.90;;;;;;4954868;29;20458;-89
2021/07/24 09:11:47;;;;;;;21.70;13.40;;;24.90;99.90;;;;;;4952078;29;20462;-88
2021/07/24 09:14:15;;;;;;;14.20;12.37;;;;;;;;;;4951950;29;20447;-87
2021/07/24 09:16:43;;;;;;;17.80;14.40;;;24.00;99.90;;;;;;4952105;29;20819;-87
2021/07/24 09:19:12;;;;;;;16.57;14.87;;;24.60;99.90;;;;;;4953942;29;20451;-88
2021/07/24 09:21:39;;;;;;;16.83;15.10;;;25.10;99.90;;;;;;4954802;29;20490;-88
2021/07/24 09:24:19;;;;;;;16.20;14.50;;;25.50;99.90;;;;;;4954684;29;20459;-88
2021/07/24 09:26:46;;;;;;;19.20;14.03;;;;;;;;;;4952324;29;20479;-88
2021/07/24 09:29:15;;;;;;;16.87;14.40;;;26.00;99.90;;;;;;4954699;29;20458;-87
2021/07/24 09:31:42;;;;;;;13.77;12.13;;;;;;;;;;4957835;28;20478;-91
2021/07/24 09:34:11;;;;;;;14.70;13.20;;;26.70;99.90;;;;;;4953598;29;20468;-86
2021/07/24 09:36:39;;;;;;;15.77;11.60;;;26.10;99.90;;;;;;4954778;29;20459;-87
2021/07/24 09:39:13;;;;;;;14.00;12.50;;;25.50;99.90;;;;;;4954699;29;20463;-88
2021/07/24 09:41:41;;;;;;;16.10;12.23;;;25.60;99.90;;;;;;4954651;29;20501;-86
2021/07/24 09:44:08;;;;;;;13.83;12.43;;;24.80;99.90;;;;;;4954653;29;20446;-87
2021/07/24 09:46:35;;;;;;;13.50;12.30;;;26.10;99.90;;;;;;4951701;29;21013;-87
2021/07/24 09:49:14;;;;;;;13.13;11.80;;;25.70;99.90;;;;;;4953225;29;20474;-87
2021/07/24 09:51:43;;;;;;;12.40;11.30;;;26.70;99.90;;;;;;4954696;29;20473;-87
2021/07/24 09:54:27;;;;;;;13.37;12.07;;;27.00;99.90;;;;;;4954599;29;20447;-87
2021/07/24 09:56:54;;;;;;;12.13;10.87;;;27.40;99.90;;;;;;4955975;29;20459;-87
2021/07/24 09:59:24;;;;;;;13.93;12.50;;;27.90;99.90;;;;;;4958132;29;20446;-90
2021/07/24 10:01:55;;;;;;;14.00;11.20;;;27.80;99.90;;;;;;4954916;29;20494;-88
2021/07/24 10:04:31;;;;;;;13.53;12.17;;;28.00;99.90;;;;;;4957053;29;20450;-89
2021/07/24 10:07:00;;;;;;;11.83;10.63;;;28.10;99.90;;;;;;4952018;29;20836;-87
2021/07/24 10:09:29;;;;;;;11.90;10.70;;;27.30;99.30;;;;;;4959132;29;20817;-94
2021/07/24 10:11:57;;;;;;;11.40;10.30;;;28.20;99.90;;;;;;4956476;29;20489;-89
2021/07/24 10:14:25;;;;;;;11.77;10.57;;;27.90;97.90;;;;;;4958660;29;20923;-95
2021/07/24 10:16:52;;;;;;;11.53;10.30;;;;;;;;;;4958335;29;20823;-87
2021/07/24 10:19:20;;;;;;;9.00;8.10;;;;;;;;;;4956607;29;20455;-87
2021/07/24 10:21:49;;;;;;;9.33;8.17;;;27.40;98.00;;;;;;4957769;29;20498;-88
2021/07/24 10:24:17;;;;;;;9.17;8.27;;;28.20;99.90;;;;;;4959251;29;20458;-90
2021/07/24 10:26:51;;;;;;;7.37;6.67;;;28.40;99.90;;;;;;4957710;29;20447;-88
2021/07/24 10:29:22;;;;;;;10.53;8.10;;;28.00;94.10;;;;;;4958294;29;20961;-89
2021/07/24 10:31:54;;;;;;;8.20;7.50;;;27.70;95.80;;;;;;4957978;29;20466;-90
2021/07/24 10:34:28;;;;;;;7.37;6.67;;;26.80;99.90;;;;;;4954475;29;20458;-87
2021/07/24 10:36:59;;;;;;;8.50;7.70;;;26.80;96.70;;;;;;4958161;29;20976;-94
2021/07/24 10:39:27;;;;;;;11.30;8.10;;;;;;;;;;4959813;29;20447;-92
2021/07/24 10:41:54;;;;;;;12.93;7.13;;;;;;;;;;4963334;29;20510;-90
2021/07/24 10:44:38;;;;;;;10.00;7.10;;;28.00;98.70;;;;;;4963099;29;20811;-93
2021/07/24 10:47:13;;;;;;;8.03;6.27;;;;;;;;;;4963288;29;20455;-95
2021/07/24 10:50:14;;;;;;;6.67;6.03;;;28.10;93.60;;;;;;4958263;29;20572;-89
2021/07/24 10:53:11;;;;;;;7.73;7.03;;;27.50;94.20;;;;;;4961567;29;20935;-90
2021/07/24 10:55:43;;;;;;;8.37;6.37;;;26.80;96.70;;;;;;4962544;29;20958;-95
2021/07/24 10:58:11;;;;;;;6.93;6.23;;;;;;;;;;4961801;29;20459;-91
2021/07/24 11:03:43;;;;;;;7.37;6.40;;;27.20;94.90;;;;;;4954812;29;20495;-92
2021/07/24 11:06:42;;;;;;;7.47;6.67;;;27.30;95.50;;;;;;4957760;29;20970;-91
2021/07/24 11:09:17;;;;;;;8.30;7.00;;;27.10;94.40;;;;;;4956145;29;20476;-91
2021/07/24 11:11:46;;;;;;;7.60;6.40;;;26.70;95.80;;;;;;4961668;28;20549;-93
2021/07/24 11:14:49;;;;;;;6.77;6.10;;;26.50;95.90;;;;;;4959671;29;20460;-93
2021/07/24 11:17:22;;;;;;;8.33;6.17;;;25.80;96.40;;;;;;4901345;29;20477;-95
2021/07/24 11:20:33;;;;;;;11.80;6.90;;;25.70;97.10;;;;;;4948896;29;20459;-91
2021/07/24 11:23:04;;;;;;;7.70;6.90;;;25.50;97.60;;;;;;4963899;29;20536;-92
2021/07/24 11:25:42;;;;;;;8.83;7.20;;;25.30;98.20;;;;;;4963141;29;20474;-92
2021/07/24 11:28:18;;;;;;;7.30;6.60;;;25.10;98.70;;;;;;4963988;29;20450;-94
2021/07/24 11:30:45;;;;;;;8.33;7.33;;;;;;;;;;4962125;28;20479;-90
2021/07/24 11:33:18;;;;;;;9.53;7.67;;;25.10;99.80;;;;;;4957005;29;20455;-92
2021/07/24 11:35:46;;;;;;;9.83;7.97;;;;;;;;;;4958128;29;20449;-94
2021/07/24 11:38:23;;;;;;;8.27;7.47;;;25.00;99.90;;;;;;4958915;29;20451;-90
2021/07/24 11:41:03;;;;;;;14.27;7.20;;;25.10;99.90;;;;;;4963669;29;21032;-90
2021/07/24 11:43:30;;;;;;;8.93;7.30;;;;;;;;;;4919947;29;20592;-91
2021/07/24 11:46:02;;;;;;;8.50;6.77;;;24.80;99.90;;;;;;4916314;29;20452;-90
2021/07/24 11:48:29;;;;;;;11.63;7.80;;;;;;;;;;4915257;29;20456;-90
2021/07/24 11:51:07;;;;;;;10.23;7.10;;;25.60;99.90;;;;;;4916421;29;20492;-91
2021/07/24 11:53:35;;;;;;;7.80;7.03;;;;;;;;;;4917274;29;20556;-94
2021/07/24 11:56:07;;;;;;;9.37;7.97;;;26.10;99.90;;;;;;4914107;29;20496;-90
2021/07/24 11:58:34;;;;;;;8.50;7.67;;;;;;;;;;4914380;29;20456;-94
2021/07/24 12:01:03;;;;;;;8.70;7.00;;;;;;;;;;4926451;29;20494;-92
2021/07/24 12:03:31;;;;;;;9.10;8.07;;;27.50;97.90;;;;;;4955238;29;20536;-93
2021/07/24 12:06:09;;;;;;;9.30;7.27;;;27.90;95.90;;;;;;4950438;29;20517;-90
2021/07/24 12:08:37;;;;;;;7.97;7.20;;;28.10;96.50;;;;;;4952008;29;20463;-88
2021/07/24 12:11:05;;;;;;;8.57;7.60;;;27.60;96.90;;;;;;4956092;29;20986;-90
2021/07/24 12:13:32;;;;;;;8.80;7.90;;;;;;;;;;4951964;29;20447;-92
2021/07/24 12:16:14;;;;;;;12.10;8.23;;;27.30;99.90;;;;;;4951583;29;20458;-92
2021/07/24 12:18:43;;;;;;;10.47;8.80;;;26.90;97.90;;;;;;4956747;29;20455;-96
2021/07/24 12:21:13;;;;;;;8.60;7.80;;;26.50;97.90;;;;;;4956331;29;20843;-94
2021/07/24 12:23:44;;;;;;;11.30;9.57;;;26.30;99.20;;;;;;4956093;28;20572;-91
2021/07/24 12:26:15;;;;;;;9.27;8.47;;;26.50;98.50;;;;;;4955438;29;20462;-94
2021/07/24 12:28:43;;;;;;;9.60;7.30;;;27.20;97.80;;;;;;4956815;28;20792;-92
2021/07/24 12:31:33;;;;;;;8.87;7.00;;;27.00;99.90;;;;;;4959911;29;20463;-94
2021/07/24 12:34:01;;;;;;;10.10;7.37;;;27.20;97.30;;;;;;4953606;29;20451;-91
2021/07/24 12:36:29;;;;;;;8.37;7.47;;;27.90;97.10;;;;;;4959534;29;20464;-91
2021/07/24 12:38:58;;;;;;;10.13;7.87;;;27.50;96.10;;;;;;4955365;29;20858;-89
2021/07/24 12:41:41;;;;;;;8.10;6.70;;;27.40;99.90;;;;;;4958356;29;20869;-91
2021/07/24 12:44:10;;;;;;;9.60;7.63;;;27.00;99.90;;;;;;4957692;29;20466;-89
2021/07/24 12:46:38;;;;;;;8.50;7.70;;;27.10;95.80;;;;;;4955127;29;20458;-93
2021/07/24 12:49:06;;;;;;;9.60;8.00;;;;;;;;;;4957263;29;20485;-96
2021/07/24 12:51:36;;;;;;;9.03;7.43;;;26.60;97.20;;;;;;4950143;29;20981;-92
2021/07/24 12:57:06;;;;;;;10.53;8.17;;;26.50;97.20;;;;;;4960684;29;20534;-94
2021/07/24 12:59:33;;;;;;;8.70;7.70;;;;;;;;;;4957830;29;20460;-94
2021/07/24 13:02:00;;;;;;;7.80;7.00;;;;;;;;;;4957153;29;20568;-92
2021/07/24 13:04:27;;;;;;;8.67;7.77;;;;;;;;;;4956099;29;20443;-95
2021/07/24 13:06:54;;;;;;;8.73;7.87;;;;;;;;;;4964064;28;20459;-95
2021/07/24 13:09:21;;;;;;;11.30;7.83;;;;;;;;;;4979611;28;20449;-93
2021/07/24 13:11:48;;;;;;;8.40;7.50;;;;;;;;;;4959692;28;20477;-95
2021/07/24 13:14:17;;;;;;;9.70;7.93;;;25.80;98.00;;;;;;4958353;29;20451;-95
2021/07/24 13:16:44;;;;;;;11.60;7.90;;;;;;;;;;4951355;29;20439;-95
2021/07/24 13:19:14;;;;;;;9.43;8.13;;;;;;;;;;4959026;29;20447;-95
2021/07/24 13:21:41;;;;;;;9.20;8.07;;;;;;;;;;4952442;29;20851;-96